Flordell Hills, Missouri
Current Conditions -  °F | °C
As of 10:51 AM on Sunday 23 Nov 2014 (Local Time) from KSTL Reporting Station
Light Rain Light Rain  
Wind Chill: 57°   Ceiling: 7000
Heat Index: 57°   Visibility: 4mi
Dew Point: 53°   Wind: 17mph
Humidity: 87%   Direction: 130°SE
Pressure: 29.58"   Gusts: NA
Location:  38.7423°N, 90.2608°W
Report Text: KSTL 231651Z 13015KT 4SM -RA BR SCT011 BKN070 OVC090 14/12 A2958 RMK AO2 SLP015 P0006 T01390117
Loading
Personal Weather Stations






























Interactive Weather Map New forecast layout! Learn more

10-Day Weather Forecast

Advertisements
Track Severe Weather on mobile